Time;durP1;ratioP1;P1;durP2;ratioP2;P2;SDS_P1;SDS_P2;PMS_P1;PMS_P2;Temp;Humidity;BMP_temperature;BMP_pressure;BME280_temperature;BME280_humidity;BME280_pressure;Samples;Min_cycle;Max_cycle;Signal;HPM_P1;HPM_P2
2023/04/04 00:01:05;;;;;;;5.30;2.63;;;5.20;99.90;;;;;;4928099;29;20028;-72
2023/04/04 00:03:31;;;;;;;6.38;2.65;;;5.20;99.90;;;;;;4928033;29;20035;-72
2023/04/04 00:05:57;;;;;;;4.10;2.28;;;5.20;99.90;;;;;;4932800;29;20500;-72
2023/04/04 00:08:22;;;;;;;5.60;2.50;;;5.20;99.90;;;;;;4928117;29;20381;-73
2023/04/04 00:10:48;;;;;;;4.75;2.38;;;5.10;99.90;;;;;;4924495;29;20032;-73
2023/04/04 00:13:14;;;;;;;6.72;2.45;;;5.10;99.90;;;;;;4929142;29;20035;-72
2023/04/04 00:15:40;;;;;;;4.88;2.75;;;5.00;99.90;;;;;;4935059;29;20020;-72
2023/04/04 00:18:06;;;;;;;5.43;2.90;;;5.00;99.90;;;;;;4931671;29;20031;-73
2023/04/04 00:20:31;;;;;;;7.35;2.53;;;4.90;99.90;;;;;;4926326;29;20358;-72
2023/04/04 00:22:57;;;;;;;8.65;2.90;;;4.90;99.90;;;;;;4925336;29;20038;-72
2023/04/04 00:25:24;;;;;;;6.70;2.90;;;4.80;99.90;;;;;;4929860;29;20095;-72
2023/04/04 00:27:50;;;;;;;7.97;2.53;;;4.80;99.90;;;;;;4936650;29;20024;-72
2023/04/04 00:30:16;;;;;;;6.13;2.72;;;4.80;99.90;;;;;;4922455;29;20754;-72
2023/04/04 00:32:41;;;;;;;6.57;2.70;;;4.70;99.90;;;;;;4929112;29;20469;-73
2023/04/04 00:35:07;;;;;;;5.63;2.63;;;4.70;99.90;;;;;;4924491;29;20042;-72
2023/04/04 00:37:34;;;;;;;9.10;2.80;;;4.70;99.90;;;;;;4925444;29;20036;-72
2023/04/04 00:40:00;;;;;;;8.10;2.50;;;4.60;99.90;;;;;;4926833;29;20034;-72
2023/04/04 00:42:26;;;;;;;6.63;2.90;;;4.60;99.90;;;;;;4923954;29;20028;-72
2023/04/04 00:44:52;;;;;;;5.55;2.72;;;4.50;99.90;;;;;;4929905;29;20039;-72
2023/04/04 00:47:23;;;;;;;6.60;2.95;;;4.40;99.90;;;;;;4923921;29;20032;-72
2023/04/04 00:49:49;;;;;;;8.07;3.05;;;4.40;99.90;;;;;;4936168;29;20034;-72
2023/04/04 00:52:15;;;;;;;9.75;2.92;;;4.40;99.90;;;;;;4932085;29;20024;-72
2023/04/04 00:54:42;;;;;;;8.13;2.65;;;4.40;99.90;;;;;;4923964;29;20027;-73
2023/04/04 00:57:08;;;;;;;5.47;2.40;;;4.40;99.90;;;;;;4934320;29;20528;-73
2023/04/04 00:59:35;;;;;;;6.15;2.60;;;4.40;99.90;;;;;;4921968;29;20055;-73
2023/04/04 01:02:00;;;;;;;5.22;2.30;;;4.40;99.90;;;;;;4928447;29;20052;-72
2023/04/04 01:04:28;;;;;;;4.72;2.20;;;4.30;99.90;;;;;;4923841;29;20477;-72
2023/04/04 01:06:54;;;;;;;5.35;2.58;;;4.30;99.90;;;;;;4927612;29;20039;-73
2023/04/04 01:09:21;;;;;;;5.63;2.65;;;4.30;99.90;;;;;;4930286;29;20028;-72
2023/04/04 01:11:47;;;;;;;8.25;2.25;;;4.30;99.90;;;;;;4928674;29;20115;-72
2023/04/04 01:14:13;;;;;;;4.72;2.47;;;4.30;99.90;;;;;;4929041;29;20255;-73
2023/04/04 01:16:40;;;;;;;8.30;2.80;;;4.20;99.90;;;;;;4933251;29;20096;-73
2023/04/04 01:19:10;;;;;;;4.20;2.42;;;4.30;99.90;;;;;;4929205;29;20115;-73
2023/04/04 01:21:37;;;;;;;5.50;2.25;;;4.20;99.90;;;;;;4925616;29;20016;-72
2023/04/04 01:24:04;;;;;;;5.57;2.65;;;4.20;99.90;;;;;;4930401;29;20036;-73
2023/04/04 01:26:30;;;;;;;5.10;2.53;;;4.20;99.90;;;;;;4923719;29;20047;-72
2023/04/04 01:28:57;;;;;;;5.43;2.50;;;4.20;99.90;;;;;;4927536;29;20044;-72
2023/04/04 01:31:48;;;;;;;6.28;2.42;;;4.20;99.90;;;;;;4932936;29;20043;-72
2023/04/04 01:34:27;;;;;;;6.22;2.40;;;4.10;99.90;;;;;;4930578;29;20028;-72
2023/04/04 01:37:00;;;;;;;9.05;3.20;;;4.10;99.90;;;;;;4925014;29;20422;-72
2023/04/04 01:39:38;;;;;;;6.28;2.50;;;4.00;99.90;;;;;;4923545;29;20062;-73
2023/04/04 01:42:05;;;;;;;8.80;3.17;;;4.00;99.90;;;;;;4926398;29;20024;-73
2023/04/04 01:44:31;;;;;;;5.88;2.97;;;4.00;99.90;;;;;;4930436;29;20075;-72
2023/04/04 01:46:57;;;;;;;4.47;2.45;;;4.00;99.90;;;;;;4923041;29;20068;-73
2023/04/04 01:49:23;;;;;;;5.25;3.10;;;4.10;99.90;;;;;;4928864;29;20082;-73
2023/04/04 01:51:51;;;;;;;7.93;3.58;;;4.10;99.90;;;;;;4924136;29;20083;-72
2023/04/04 01:54:20;;;;;;;7.93;4.03;;;4.00;99.90;;;;;;4924865;29;20024;-72
2023/04/04 01:56:45;;;;;;;7.40;3.70;;;4.00;99.90;;;;;;4924841;28;20040;-73
2023/04/04 01:59:11;;;;;;;5.68;3.17;;;4.00;99.90;;;;;;4926935;29;20030;-72
2023/04/04 02:01:37;;;;;;;6.10;3.08;;;4.00;99.90;;;;;;4935508;29;20079;-73
2023/04/04 02:04:03;;;;;;;7.22;3.33;;;4.00;99.90;;;;;;4929699;29;20030;-72
2023/04/04 02:06:29;;;;;;;6.15;2.75;;;4.00;99.90;;;;;;4930681;29;20036;-73
2023/04/04 02:08:55;;;;;;;8.02;3.42;;;4.00;99.90;;;;;;4921425;29;20031;-72
2023/04/04 02:11:22;;;;;;;9.20;3.10;;;4.00;99.90;;;;;;4928062;29;20028;-73
2023/04/04 02:13:48;;;;;;;10.73;3.53;;;4.00;99.90;;;;;;4930110;29;20020;-73
2023/04/04 02:16:14;;;;;;;9.13;2.90;;;3.90;99.90;;;;;;4928152;29;20039;-72
2023/04/04 02:18:40;;;;;;;5.90;3.10;;;4.00;99.90;;;;;;4925941;29;20020;-72
2023/04/04 02:21:06;;;;;;;9.05;2.80;;;3.90;99.90;;;;;;4931695;29;20087;-73
2023/04/04 02:23:32;;;;;;;6.53;3.22;;;3.90;99.90;;;;;;4928758;29;20024;-73
2023/04/04 02:25:57;;;;;;;6.15;3.05;;;3.90;99.90;;;;;;4921689;29;20512;-73
2023/04/04 02:28:23;;;;;;;7.00;3.58;;;3.80;99.90;;;;;;4929640;29;20099;-73
2023/04/04 02:30:49;;;;;;;6.50;3.63;;;3.90;99.90;;;;;;4930188;29;20035;-72
2023/04/04 02:33:15;;;;;;;7.53;3.55;;;3.80;99.90;;;;;;4930485;29;20024;-72
2023/04/04 02:35:41;;;;;;;9.63;3.13;;;3.80;99.90;;;;;;4928070;29;20102;-73
2023/04/04 02:38:07;;;;;;;6.30;3.75;;;3.90;99.90;;;;;;4931672;29;20076;-72
2023/04/04 02:40:32;;;;;;;10.18;3.88;;;3.90;99.90;;;;;;4927281;29;20036;-72
2023/04/04 02:42:58;;;;;;;6.05;3.13;;;3.80;99.90;;;;;;4930144;29;20425;-73
2023/04/04 02:45:24;;;;;;;5.75;3.45;;;3.80;99.90;;;;;;4927416;29;20039;-73
2023/04/04 02:47:50;;;;;;;7.47;3.67;;;3.70;99.90;;;;;;4929843;29;20075;-73
2023/04/04 02:50:16;;;;;;;8.50;3.15;;;3.70;99.90;;;;;;4930945;29;20161;-73
2023/04/04 02:52:41;;;;;;;6.45;3.33;;;3.70;99.90;;;;;;4926207;29;20024;-73
2023/04/04 02:55:08;;;;;;;8.13;3.33;;;3.60;99.90;;;;;;4930676;29;20024;-73
2023/04/04 02:57:34;;;;;;;9.60;3.33;;;3.60;99.90;;;;;;4926045;29;20063;-73
2023/04/04 03:00:00;;;;;;;5.00;3.40;;;3.60;99.90;;;;;;4928198;29;20027;-72
2023/04/04 03:02:25;;;;;;;9.77;3.85;;;3.50;99.90;;;;;;4927762;29;20102;-72
2023/04/04 03:04:51;;;;;;;7.65;3.47;;;3.50;99.90;;;;;;4928793;29;20065;-72
2023/04/04 03:07:17;;;;;;;8.30;3.50;;;3.50;99.90;;;;;;4926440;29;20042;-72
2023/04/04 03:09:45;;;;;;;6.45;3.45;;;3.50;99.90;;;;;;4941944;28;20095;-72
2023/04/04 03:12:11;;;;;;;9.52;3.95;;;3.50;99.90;;;;;;4931107;29;20645;-72
2023/04/04 03:14:37;;;;;;;6.88;3.80;;;3.40;99.90;;;;;;4925618;29;20115;-72
2023/04/04 03:17:03;;;;;;;9.20;3.90;;;3.40;99.90;;;;;;4934113;29;20018;-72
2023/04/04 03:19:29;;;;;;;8.20;3.58;;;3.40;99.90;;;;;;4927451;29;20115;-72
2023/04/04 03:21:55;;;;;;;5.97;3.00;;;3.40;99.90;;;;;;4926673;29;20413;-72
2023/04/04 03:24:21;;;;;;;8.35;3.45;;;3.30;99.90;;;;;;4926965;29;20035;-72
2023/04/04 03:26:47;;;;;;;7.80;3.55;;;3.20;99.90;;;;;;4923044;29;20446;-73
2023/04/04 03:29:12;;;;;;;5.93;3.13;;;3.30;99.90;;;;;;4924096;29;20020;-72
2023/04/04 03:31:38;;;;;;;9.52;3.30;;;3.30;99.90;;;;;;4929712;29;20059;-72
2023/04/04 03:34:04;;;;;;;7.70;3.40;;;3.30;99.90;;;;;;4930288;29;20038;-72
2023/04/04 03:36:30;;;;;;;7.82;3.88;;;3.30;99.90;;;;;;4927220;29;21337;-72
2023/04/04 03:38:56;;;;;;;7.75;3.58;;;3.30;99.90;;;;;;4928975;29;20043;-72
2023/04/04 03:41:21;;;;;;;8.23;3.80;;;3.30;99.90;;;;;;4923168;29;20032;-72
2023/04/04 03:43:47;;;;;;;11.50;4.25;;;3.30;99.90;;;;;;4926681;29;20036;-72
2023/04/04 03:46:13;;;;;;;8.73;3.83;;;3.30;99.90;;;;;;4929894;29;20059;-72
2023/04/04 03:48:39;;;;;;;8.55;3.58;;;3.20;99.90;;;;;;4923838;28;20027;-72
2023/04/04 03:51:05;;;;;;;8.93;4.00;;;3.20;99.90;;;;;;4929885;29;20075;-72
2023/04/04 03:53:31;;;;;;;8.68;5.07;;;3.20;99.90;;;;;;4928987;29;20032;-72
2023/04/04 03:55:56;;;;;;;8.00;4.00;;;3.20;99.90;;;;;;4937854;28;20060;-72
2023/04/04 03:58:23;;;;;;;6.93;3.47;;;3.20;99.90;;;;;;4927777;29;20118;-72
2023/04/04 04:00:48;;;;;;;10.73;4.18;;;3.10;99.90;;;;;;4928323;29;20082;-72
2023/04/04 04:03:14;;;;;;;14.38;4.55;;;3.20;99.90;;;;;;4927523;29;20036;-72
2023/04/04 04:05:40;;;;;;;7.80;4.43;;;3.20;99.90;;;;;;4926194;29;20028;-73
2023/04/04 04:08:06;;;;;;;8.70;4.68;;;3.20;99.90;;;;;;4927077;29;20036;-72
2023/04/04 04:10:32;;;;;;;8.93;4.05;;;3.10;99.90;;;;;;4925742;29;20036;-72
2023/04/04 04:12:58;;;;;;;8.57;4.88;;;3.10;99.90;;;;;;4925068;29;20660;-72
2023/04/04 04:15:24;;;;;;;11.85;4.95;;;3.10;99.90;;;;;;4932296;29;20031;-72
2023/04/04 04:17:50;;;;;;;10.43;5.70;;;3.10;99.90;;;;;;4924555;29;20428;-72
2023/04/04 04:20:16;;;;;;;12.75;5.30;;;3.10;99.90;;;;;;4931735;29;20039;-72
2023/04/04 04:22:47;;;;;;;9.18;5.18;;;3.10;99.90;;;;;;4924573;29;20540;-72
2023/04/04 04:25:14;;;;;;;9.23;4.90;;;3.10;99.90;;;;;;4945255;28;20496;-72
2023/04/04 04:27:40;;;;;;;7.20;4.43;;;3.00;99.90;;;;;;4923886;29;20040;-72
2023/04/04 04:30:06;;;;;;;10.68;5.25;;;3.00;99.90;;;;;;4930113;29;20028;-72
2023/04/04 04:32:32;;;;;;;7.40;5.03;;;3.00;99.90;;;;;;4925145;29;20023;-72
2023/04/04 04:34:58;;;;;;;7.13;5.20;;;3.00;99.90;;;;;;4931050;29;20506;-73
2023/04/04 04:37:25;;;;;;;10.40;5.22;;;3.00;99.90;;;;;;4923682;29;20111;-73
2023/04/04 04:39:51;;;;;;;13.63;6.78;;;2.90;99.90;;;;;;4924762;29;20103;-73
2023/04/04 04:42:17;;;;;;;10.48;5.43;;;3.00;99.90;;;;;;4933963;29;20476;-73
2023/04/04 04:44:42;;;;;;;10.02;5.53;;;3.00;99.90;;;;;;4923691;29;20028;-73
2023/04/04 04:47:08;;;;;;;9.50;5.60;;;3.00;99.90;;;;;;4929684;29;20043;-73
2023/04/04 04:49:34;;;;;;;7.93;5.43;;;2.90;99.90;;;;;;4929535;29;20461;-73
2023/04/04 04:52:01;;;;;;;8.40;5.25;;;2.90;99.90;;;;;;4925552;29;20031;-73
2023/04/04 04:54:27;;;;;;;14.30;5.82;;;2.90;99.90;;;;;;4930589;28;20015;-73
2023/04/04 04:56:52;;;;;;;10.85;5.53;;;2.90;99.90;;;;;;4933491;29;20046;-73
2023/04/04 04:59:18;;;;;;;11.55;5.65;;;2.90;99.90;;;;;;4925695;29;20357;-73
2023/04/04 05:01:44;;;;;;;6.43;4.80;;;2.90;99.90;;;;;;4927683;29;20028;-72
2023/04/04 05:04:10;;;;;;;7.72;4.95;;;2.90;99.90;;;;;;4923313;29;20485;-73
2023/04/04 05:06:37;;;;;;;10.40;5.00;;;2.80;99.90;;;;;;4925966;29;20091;-73
2023/04/04 05:09:03;;;;;;;11.23;5.57;;;2.80;99.90;;;;;;4926509;29;20024;-73
2023/04/04 05:11:29;;;;;;;7.18;4.93;;;2.80;99.90;;;;;;4925448;29;20020;-73
2023/04/04 05:13:55;;;;;;;8.60;5.40;;;2.80;99.90;;;;;;4923543;28;20060;-73
2023/04/04 05:16:21;;;;;;;11.52;5.65;;;2.80;99.90;;;;;;4925337;29;20062;-73
2023/04/04 05:18:47;;;;;;;11.07;5.90;;;2.80;99.90;;;;;;4927252;29;20016;-73
2023/04/04 05:21:13;;;;;;;10.75;5.57;;;2.80;99.90;;;;;;4922938;29;20052;-73
2023/04/04 05:23:38;;;;;;;8.98;5.07;;;2.80;99.90;;;;;;4927905;29;20027;-72
2023/04/04 05:26:04;;;;;;;12.90;5.68;;;2.80;99.90;;;;;;4921307;29;20057;-73
2023/04/04 05:28:30;;;;;;;8.48;5.85;;;2.80;99.90;;;;;;4930462;29;20020;-72
2023/04/04 05:30:55;;;;;;;11.10;4.53;;;2.80;99.90;;;;;;4925703;29;20024;-73
2023/04/04 05:33:22;;;;;;;8.25;5.03;;;2.70;99.90;;;;;;4944766;28;20020;-72
2023/04/04 05:35:48;;;;;;;7.88;4.78;;;2.70;99.90;;;;;;4921453;29;20126;-75
2023/04/04 05:38:13;;;;;;;11.60;5.38;;;2.60;99.90;;;;;;4923917;29;20149;-68
2023/04/04 05:40:39;;;;;;;12.23;5.53;;;2.70;99.90;;;;;;4927564;29;20032;-70
2023/04/04 05:43:05;;;;;;;15.15;7.63;;;2.70;99.90;;;;;;4923975;29;20421;-72
2023/04/04 05:45:31;;;;;;;10.80;6.22;;;2.70;99.90;;;;;;4928999;29;20031;-72
2023/04/04 05:47:56;;;;;;;8.35;5.10;;;2.80;99.90;;;;;;4920953;29;20044;-72
2023/04/04 05:50:22;;;;;;;10.93;5.85;;;2.70;99.90;;;;;;4928682;29;20031;-72
2023/04/04 05:52:48;;;;;;;11.07;6.18;;;2.70;99.90;;;;;;4921908;28;20040;-70
2023/04/04 05:55:14;;;;;;;11.23;6.07;;;2.80;99.90;;;;;;4924615;29;20039;-73
2023/04/04 05:57:50;;;;;;;8.25;5.13;;;2.70;99.90;;;;;;4928900;29;20429;-72
2023/04/04 06:00:16;;;;;;;10.52;5.60;;;2.80;99.90;;;;;;4920985;29;20068;-72
2023/04/04 06:02:43;;;;;;;10.77;4.93;;;2.80;99.90;;;;;;4925025;29;20103;-73
2023/04/04 06:05:09;;;;;;;14.55;5.93;;;2.80;99.90;;;;;;4933163;29;20111;-71
2023/04/04 06:07:36;;;;;;;20.02;8.00;;;2.80;99.90;;;;;;4929214;28;20082;-70
2023/04/04 06:10:02;;;;;;;8.63;5.90;;;2.80;99.90;;;;;;4937748;28;20048;-73
2023/04/04 06:12:28;;;;;;;14.45;7.35;;;2.80;99.90;;;;;;4931427;28;20377;-74
2023/04/04 06:14:54;;;;;;;9.45;6.05;;;2.80;99.90;;;;;;4925687;29;20036;-76
2023/04/04 06:17:19;;;;;;;13.73;6.07;;;2.90;99.90;;;;;;4928964;29;20024;-70
2023/04/04 06:19:45;;;;;;;12.85;6.10;;;2.90;99.90;;;;;;4935071;29;20047;-71
2023/04/04 06:22:10;;;;;;;9.50;6.22;;;2.90;99.90;;;;;;4930435;29;20035;-72
2023/04/04 06:24:36;;;;;;;10.35;5.35;;;2.90;99.90;;;;;;4928749;29;20024;-73
2023/04/04 06:27:02;;;;;;;9.02;6.05;;;3.00;99.90;;;;;;4931789;29;20035;-72
2023/04/04 06:29:28;;;;;;;11.60;6.93;;;3.00;99.90;;;;;;4925275;29;20047;-72
2023/04/04 06:31:53;;;;;;;11.95;6.97;;;3.10;99.90;;;;;;4931806;29;20032;-72
2023/04/04 06:34:22;;;;;;;11.35;6.78;;;3.10;99.90;;;;;;4924464;29;20045;-70
2023/04/04 06:36:47;;;;;;;10.52;6.53;;;3.20;99.90;;;;;;4929999;29;20520;-72
2023/04/04 06:39:13;;;;;;;8.07;5.68;;;3.20;99.90;;;;;;4929038;29;20039;-71
2023/04/04 06:41:39;;;;;;;10.07;7.60;;;3.20;99.90;;;;;;4930237;29;20032;-72
2023/04/04 06:44:05;;;;;;;13.30;7.07;;;3.30;99.90;;;;;;4931541;29;20024;-73
2023/04/04 06:46:31;;;;;;;13.57;6.93;;;3.30;99.90;;;;;;4930728;29;20045;-72
2023/04/04 06:48:58;;;;;;;15.07;7.63;;;3.40;99.90;;;;;;4925838;29;20024;-70
2023/04/04 06:51:24;;;;;;;11.27;7.70;;;3.30;99.90;;;;;;4935551;29;20545;-72
2023/04/04 06:53:50;;;;;;;16.20;7.32;;;3.40;99.90;;;;;;4929659;29;20371;-71
2023/04/04 06:56:16;;;;;;;14.75;7.55;;;3.40;99.90;;;;;;4931295;29;20028;-73
2023/04/04 06:58:42;;;;;;;13.57;7.65;;;3.50;99.90;;;;;;4929843;29;20039;-73
2023/04/04 07:01:07;;;;;;;16.33;7.30;;;3.60;99.90;;;;;;4920343;29;20067;-72
2023/04/04 07:03:33;;;;;;;13.40;6.88;;;3.60;99.90;;;;;;4928008;29;20071;-71
2023/04/04 07:06:02;;;;;;;12.77;7.32;;;3.70;99.90;;;;;;4934657;29;20027;-71
2023/04/04 07:08:29;;;;;;;17.65;7.47;;;3.80;99.90;;;;;;4930037;29;20115;-71
2023/04/04 07:10:55;;;;;;;12.27;6.80;;;3.70;99.90;;;;;;4062747;28;10000976;-73
2023/04/04 07:13:21;;;;;;;10.27;6.53;;;3.80;99.90;;;;;;4935427;29;20051;-71
2023/04/04 07:15:48;;;;;;;10.13;6.20;;;3.80;99.90;;;;;;4934770;29;20038;-71
2023/04/04 07:18:15;;;;;;;12.10;5.20;;;3.90;99.90;;;;;;4942370;28;20027;-71
2023/04/04 07:20:42;;;;;;;10.50;5.28;;;4.00;99.90;;;;;;4928520;28;20370;-73
2023/04/04 07:23:08;;;;;;;10.40;5.70;;;4.10;99.90;;;;;;4925148;29;20501;-73
2023/04/04 07:25:34;;;;;;;9.10;5.55;;;4.10;99.90;;;;;;4932311;29;20035;-74
2023/04/04 07:28:00;;;;;;;7.63;4.95;;;4.20;99.90;;;;;;4925204;29;20020;-72
2023/04/04 07:30:28;;;;;;;8.85;4.95;;;4.30;99.90;;;;;;4929559;29;20072;-72
2023/04/04 07:33:01;;;;;;;11.52;5.25;;;4.30;99.90;;;;;;4925573;29;20115;-73
2023/04/04 07:35:27;;;;;;;12.30;4.82;;;4.40;99.90;;;;;;4933106;29;20028;-74
2023/04/04 07:37:53;;;;;;;9.90;4.60;;;4.50;99.90;;;;;;4924737;29;20042;-73
2023/04/04 07:40:19;;;;;;;7.78;5.18;;;4.70;99.90;;;;;;4930768;29;20381;-71
2023/04/04 07:42:46;;;;;;;14.90;4.82;;;4.80;99.90;;;;;;4926739;29;20027;-71
2023/04/04 07:45:14;;;;;;;12.25;5.28;;;5.00;99.90;;;;;;4935961;29;20023;-71
2023/04/04 07:47:43;;;;;;;10.90;4.68;;;5.20;99.90;;;;;;4925946;29;20067;-72
2023/04/04 07:50:10;;;;;;;8.55;3.53;;;5.30;99.90;;;;;;4925868;29;20027;-73
2023/04/04 07:52:36;;;;;;;8.15;4.82;;;5.40;99.90;;;;;;4926778;28;20027;-72
2023/04/04 07:55:02;;;;;;;9.98;4.30;;;5.60;99.90;;;;;;4928225;29;20043;-74
2023/04/04 07:57:28;;;;;;;6.68;3.28;;;5.60;99.90;;;;;;4929166;29;20039;-73
2023/04/04 07:59:54;;;;;;;8.85;4.22;;;5.70;99.90;;;;;;4924846;29;20620;-73
2023/04/04 08:02:20;;;;;;;9.95;4.30;;;5.90;99.90;;;;;;4932476;29;20027;-72
2023/04/04 08:04:45;;;;;;;8.20;3.60;;;6.00;99.90;;;;;;4927284;29;20623;-72
2023/04/04 08:07:11;;;;;;;13.77;4.50;;;6.10;99.90;;;;;;4926771;29;20498;-72
2023/04/04 08:09:37;;;;;;;8.52;3.83;;;6.30;99.90;;;;;;4934492;29;20020;-71
2023/04/04 08:12:04;;;;;;;9.18;3.60;;;6.30;99.90;;;;;;4924844;29;20039;-73
2023/04/04 08:14:30;;;;;;;6.50;3.50;;;6.40;99.90;;;;;;4929155;29;20020;-72
2023/04/04 08:16:56;;;;;;;5.50;3.00;;;6.50;99.90;;;;;;4923496;29;20155;-72
2023/04/04 08:19:22;;;;;;;5.57;2.67;;;6.50;99.90;;;;;;4925478;29;20155;-72
2023/04/04 08:21:48;;;;;;;5.93;3.22;;;6.70;99.90;;;;;;4926912;28;20027;-73
2023/04/04 08:24:14;;;;;;;5.82;2.90;;;6.80;99.90;;;;;;4928333;29;20027;-73
2023/04/04 08:26:41;;;;;;;5.93;3.20;;;6.90;99.90;;;;;;4929039;29;20038;-73
2023/04/04 08:29:06;;;;;;;5.18;2.97;;;7.00;99.90;;;;;;4928986;29;20028;-74
2023/04/04 08:31:33;;;;;;;7.20;2.58;;;7.20;99.90;;;;;;4927371;29;20087;-72
2023/04/04 08:34:00;;;;;;;7.00;2.70;;;7.20;99.90;;;;;;4928577;29;20034;-72
2023/04/04 08:36:26;;;;;;;6.07;2.92;;;7.20;99.90;;;;;;4925360;29;20377;-74
2023/04/04 08:38:52;;;;;;;6.38;2.60;;;7.50;99.90;;;;;;4928251;29;20027;-73
2023/04/04 08:41:18;;;;;;;3.22;2.72;;;7.50;99.90;;;;;;4923966;28;20036;-73
2023/04/04 08:43:53;;;;;;;2.97;2.58;;;7.50;99.90;;;;;;4925964;29;20039;-73
2023/04/04 08:46:23;;;;;;;6.25;2.63;;;7.50;99.90;;;;;;4925914;29;20032;-74
2023/04/04 08:48:50;;;;;;;4.72;2.00;;;7.60;99.90;;;;;;4928649;29;20052;-74
2023/04/04 08:51:18;;;;;;;6.53;2.22;;;7.70;99.90;;;;;;4928822;29;21349;-73
2023/04/04 08:53:44;;;;;;;4.38;2.30;;;7.80;99.90;;;;;;4928462;29;20042;-73
2023/04/04 08:56:10;;;;;;;2.72;2.00;;;7.80;99.90;;;;;;4932779;29;20023;-71
2023/04/04 08:58:37;;;;;;;6.35;2.10;;;7.90;99.90;;;;;;4925315;28;20032;-71
2023/04/04 09:01:04;;;;;;;4.07;2.30;;;8.00;99.90;;;;;;4924326;29;20087;-71
2023/04/04 09:03:33;;;;;;;4.50;2.10;;;8.10;99.90;;;;;;4921931;29;20039;-71
2023/04/04 09:06:00;;;;;;;5.55;2.53;;;8.20;99.90;;;;;;4927942;29;20036;-71
2023/04/04 09:08:26;;;;;;;7.28;2.58;;;8.30;99.90;;;;;;4927155;29;20031;-71
2023/04/04 09:10:53;;;;;;;7.90;2.83;;;8.40;99.90;;;;;;4924083;29;20052;-71
2023/04/04 09:13:19;;;;;;;3.63;2.10;;;8.60;99.90;;;;;;4925954;29;20023;-71
2023/04/04 09:15:46;;;;;;;6.65;2.63;;;8.90;99.90;;;;;;4925593;29;20028;-71
2023/04/04 09:18:12;;;;;;;4.28;2.30;;;8.70;99.90;;;;;;4924462;29;20139;-71
2023/04/04 09:20:42;;;;;;;5.15;2.70;;;8.70;99.90;;;;;;4923034;29;20106;-71
2023/04/04 09:23:11;;;;;;;4.50;2.63;;;8.70;99.90;;;;;;4929601;29;21047;-71
2023/04/04 09:25:41;;;;;;;8.55;2.42;;;8.80;99.90;;;;;;4929551;29;20115;-71
2023/04/04 09:28:07;;;;;;;5.95;2.15;;;8.50;99.90;;;;;;4931883;29;20024;-71
2023/04/04 09:30:34;;;;;;;6.03;2.63;;;8.50;99.90;;;;;;4930892;29;20024;-71
2023/04/04 09:33:03;;;;;;;4.28;2.30;;;8.60;99.90;;;;;;4933102;29;20023;-71
2023/04/04 09:35:30;;;;;;;5.65;2.13;;;8.80;99.90;;;;;;4926689;29;20023;-71
2023/04/04 09:37:56;;;;;;;6.75;2.28;;;9.00;99.90;;;;;;4927581;29;20119;-71
2023/04/04 09:40:22;;;;;;;8.82;2.80;;;9.10;99.90;;;;;;4925283;29;20055;-71
2023/04/04 09:42:49;;;;;;;6.72;2.25;;;9.20;99.90;;;;;;4926634;29;20024;-71
2023/04/04 09:45:16;;;;;;;4.97;2.08;;;9.20;99.90;;;;;;4925940;28;20543;-71
2023/04/04 09:47:42;;;;;;;4.03;2.10;;;9.40;99.90;;;;;;4930670;29;20032;-71
2023/04/04 09:50:08;;;;;;;4.10;2.40;;;9.40;99.90;;;;;;4928355;29;20027;-71
2023/04/04 09:52:34;;;;;;;4.47;1.58;;;9.70;99.90;;;;;;4928476;29;20028;-71
2023/04/04 09:55:02;;;;;;;6.25;2.58;;;9.60;99.90;;;;;;4923708;29;20024;-71
2023/04/04 09:57:34;;;;;;;4.32;2.20;;;9.70;99.90;;;;;;4928797;29;20087;-71
2023/04/04 10:00:03;;;;;;;9.13;2.80;;;9.70;99.90;;;;;;4933947;29;20118;-71
2023/04/04 10:02:31;;;;;;;5.97;2.22;;;9.90;99.90;;;;;;4923965;29;20489;-71
2023/04/04 10:04:58;;;;;;;6.43;2.30;;;10.00;99.90;;;;;;4932670;29;20034;-72
2023/04/04 10:07:28;;;;;;;6.45;2.40;;;10.30;99.90;;;;;;4929789;29;20036;-71
2023/04/04 10:09:55;;;;;;;7.72;2.47;;;10.30;99.90;;;;;;4929432;29;20035;-72
2023/04/04 10:12:23;;;;;;;5.60;2.80;;;10.40;99.90;;;;;;4931685;29;20102;-71
2023/04/04 10:14:58;;;;;;;5.18;2.72;;;10.20;98.90;;;;;;4930346;29;20024;-71
2023/04/04 10:17:36;;;;;;;3.85;2.80;;;10.20;98.30;;;;;;4929692;29;20429;-72
2023/04/04 10:20:10;;;;;;;4.60;2.60;;;10.30;99.40;;;;;;4927032;29;20031;-71
2023/04/04 10:22:37;;;;;;;4.70;2.75;;;10.40;98.20;;;;;;4930430;29;20103;-72
2023/04/04 10:25:06;;;;;;;5.78;2.75;;;10.40;96.50;;;;;;4923166;29;20040;-71
2023/04/04 10:27:33;;;;;;;6.03;2.75;;;10.50;99.90;;;;;;4926705;28;20078;-71
2023/04/04 10:30:02;;;;;;;5.80;2.40;;;10.70;97.90;;;;;;4923495;29;20032;-71
2023/04/04 10:32:51;;;;;;;7.93;3.08;;;10.80;97.80;;;;;;4928538;29;20035;-71
2023/04/04 10:35:21;;;;;;;4.18;2.28;;;10.80;97.30;;;;;;4929466;29;20738;-71
2023/04/04 10:38:01;;;;;;;4.22;2.60;;;10.80;98.00;;;;;;4926897;29;20489;-71
2023/04/04 10:40:32;;;;;;;5.38;2.45;;;11.20;98.60;;;;;;4925396;29;20039;-71
2023/04/04 10:43:06;;;;;;;5.63;2.05;;;11.10;98.00;;;;;;4925144;29;20036;-73
2023/04/04 10:45:33;;;;;;;3.03;2.17;;;11.10;98.70;;;;;;4935060;29;20048;-72
2023/04/04 10:48:03;;;;;;;4.57;2.78;;;11.00;96.50;;;;;;4923327;29;20079;-72
2023/04/04 10:50:32;;;;;;;3.97;2.40;;;11.20;97.30;;;;;;4931557;29;20035;-73
2023/04/04 10:53:00;;;;;;;8.88;3.10;;;11.00;95.80;;;;;;4929474;29;20083;-72
2023/04/04 10:55:27;;;;;;;7.70;2.83;;;11.00;96.60;;;;;;4928572;29;20040;-72
2023/04/04 10:57:54;;;;;;;7.55;2.80;;;10.90;95.60;;;;;;4929437;29;20031;-73
2023/04/04 11:00:23;;;;;;;7.47;3.03;;;11.00;95.30;;;;;;4922311;29;20021;-73
2023/04/04 11:02:51;;;;;;;4.65;2.70;;;11.30;95.60;;;;;;4928356;29;20043;-72
2023/04/04 11:05:40;;;;;;;6.57;2.67;;;11.50;96.30;;;;;;4924777;29;20023;-72
2023/04/04 11:08:12;;;;;;;5.40;2.00;;;11.80;98.10;;;;;;4930023;29;20530;-72
2023/04/04 11:10:43;;;;;;;4.85;2.67;;;11.90;97.60;;;;;;4928215;29;20024;-72
2023/04/04 11:13:25;;;;;;;5.35;2.58;;;11.90;98.60;;;;;;4935295;29;20059;-73
2023/04/04 11:16:03;;;;;;;6.43;3.17;;;12.00;96.00;;;;;;4927498;29;20071;-76
2023/04/04 11:18:41;;;;;;;4.90;2.03;;;12.20;97.10;;;;;;4925018;29;20107;-79
2023/04/04 11:21:15;;;;;;;6.43;2.55;;;12.10;95.00;;;;;;4928883;29;20020;-78
2023/04/04 11:23:47;;;;;;;4.95;2.33;;;12.00;94.50;;;;;;4928858;29;20512;-80
2023/04/04 11:26:17;;;;;;;5.37;2.60;;;12.20;95.30;;;;;;4924767;29;20040;-74
2023/04/04 11:28:44;;;;;;;6.30;2.38;;;12.30;97.00;;;;;;4929408;29;20238;-77
2023/04/04 11:31:17;;;;;;;8.13;2.20;;;12.30;95.50;;;;;;4930508;29;20042;-73
2023/04/04 11:33:58;;;;;;;6.70;1.92;;;12.40;95.40;;;;;;4925599;29;20036;-73
2023/04/04 11:36:40;;;;;;;5.88;2.50;;;12.70;94.60;;;;;;4929513;29;20399;-74
2023/04/04 11:39:25;;;;;;;4.30;2.00;;;12.70;94.70;;;;;;4922559;29;20059;-80
2023/04/04 11:41:54;;;;;;;6.75;2.60;;;12.80;94.10;;;;;;4931701;29;20099;-74
2023/04/04 11:44:23;;;;;;;7.72;2.38;;;12.80;93.10;;;;;;4930544;29;20027;-74
2023/04/04 11:47:10;;;;;;;5.55;2.70;;;12.80;95.50;;;;;;4933787;29;20039;-73
2023/04/04 11:49:39;;;;;;;5.82;2.72;;;12.90;95.80;;;;;;4934935;29;20019;-72
2023/04/04 11:52:10;;;;;;;5.28;2.30;;;12.80;97.50;;;;;;4928444;29;20788;-73
2023/04/04 11:54:41;;;;;;;5.80;2.42;;;12.90;95.40;;;;;;4925183;29;20095;-73
2023/04/04 11:57:10;;;;;;;9.02;2.40;;;12.90;91.90;;;;;;4923676;29;20035;-72
2023/04/04 11:59:42;;;;;;;3.38;2.05;;;12.60;91.10;;;;;;4931058;29;20131;-71
2023/04/04 12:02:14;;;;;;;9.85;2.70;;;12.60;95.40;;;;;;4925537;29;20028;-72
2023/04/04 12:04:43;;;;;;;6.22;2.50;;;12.90;94.30;;;;;;4929066;29;20016;-72
2023/04/04 12:07:09;;;;;;;4.53;2.75;;;12.60;92.30;;;;;;4925353;29;20044;-72
2023/04/04 12:09:35;;;;;;;5.40;2.70;;;12.90;94.10;;;;;;4929640;29;20476;-72
2023/04/04 12:12:02;;;;;;;7.07;2.58;;;12.90;92.90;;;;;;4925729;29;20421;-72
2023/04/04 12:14:28;;;;;;;6.18;2.33;;;13.00;92.40;;;;;;4928178;29;20027;-73
2023/04/04 12:16:55;;;;;;;7.40;2.50;;;13.10;93.70;;;;;;4931061;29;20534;-72
2023/04/04 12:19:25;;;;;;;7.45;2.55;;;12.80;92.60;;;;;;4932986;28;20032;-77
2023/04/04 12:21:52;;;;;;;5.38;2.60;;;12.90;95.20;;;;;;4931721;29;20031;-73
2023/04/04 12:24:18;;;;;;;6.68;2.67;;;12.70;91.60;;;;;;4926808;29;20032;-76
2023/04/04 12:26:48;;;;;;;5.10;2.67;;;12.60;91.50;;;;;;4926764;29;20043;-78
2023/04/04 12:29:16;;;;;;;8.75;2.70;;;13.00;95.30;;;;;;4925319;29;20032;-76
2023/04/04 12:31:43;;;;;;;5.28;2.42;;;12.90;91.80;;;;;;4926637;29;20497;-72
2023/04/04 12:34:23;;;;;;;5.93;2.63;;;12.90;93.30;;;;;;4923942;29;20027;-77
2023/04/04 12:36:51;;;;;;;5.40;2.75;;;13.00;90.90;;;;;;4926994;29;20036;-78
2023/04/04 12:39:19;;;;;;;9.65;2.95;;;12.90;92.10;;;;;;4930681;29;20161;-72
2023/04/04 12:41:57;;;;;;;6.70;2.47;;;12.60;91.50;;;;;;4923724;29;20035;-75
2023/04/04 12:44:33;;;;;;;8.05;2.90;;;13.00;93.60;;;;;;4933269;29;20027;-73
2023/04/04 12:47:06;;;;;;;7.78;2.85;;;12.80;92.60;;;;;;4932577;29;20744;-78
2023/04/04 12:49:44;;;;;;;4.72;2.67;;;13.00;92.80;;;;;;4921267;29;20024;-72
2023/04/04 12:52:19;;;;;;;3.97;2.80;;;13.10;91.40;;;;;;4927709;29;20027;-78
2023/04/04 12:54:45;;;;;;;7.78;2.85;;;13.10;89.70;;;;;;4926198;29;20020;-74